sensor_id;sensor_type;location;lat;lon;timestamp;P1;durP1;ratioP1;P2;durP2;ratioP2
70532;SDS011;58088;51.186;17.130;2022-07-23T00:00:35;28.60;;;15.40;;
70532;SDS011;58088;51.186;17.130;2022-07-23T00:03:01;23.60;;;13.90;;
70532;SDS011;58088;51.186;17.130;2022-07-23T00:05:27;24.00;;;13.90;;
70532;SDS011;58088;51.186;17.130;2022-07-23T00:07:53;23.10;;;14.40;;
70532;SDS011;58088;51.186;17.130;2022-07-23T00:10:20;21.20;;;13.30;;
70532;SDS011;58088;51.186;17.130;2022-07-23T00:12:46;20.90;;;12.90;;
70532;SDS011;58088;51.186;17.130;2022-07-23T00:15:12;21.70;;;13.10;;
70532;SDS011;58088;51.186;17.130;2022-07-23T00:17:38;21.00;;;12.70;;
70532;SDS011;58088;51.186;17.130;2022-07-23T00:20:05;18.60;;;11.30;;
70532;SDS011;58088;51.186;17.130;2022-07-23T00:22:32;23.60;;;12.20;;
70532;SDS011;58088;51.186;17.130;2022-07-23T00:24:58;25.50;;;12.80;;
70532;SDS011;58088;51.186;17.130;2022-07-23T00:27:24;17.60;;;11.60;;
70532;SDS011;58088;51.186;17.130;2022-07-23T00:29:50;19.90;;;12.30;;
70532;SDS011;58088;51.186;17.130;2022-07-23T00:32:16;21.50;;;12.20;;
70532;SDS011;58088;51.186;17.130;2022-07-23T00:34:43;22.60;;;12.80;;
70532;SDS011;58088;51.186;17.130;2022-07-23T00:37:09;20.20;;;12.70;;
70532;SDS011;58088;51.186;17.130;2022-07-23T00:39:35;22.80;;;13.40;;
70532;SDS011;58088;51.186;17.130;2022-07-23T00:42:02;23.80;;;14.30;;
70532;SDS011;58088;51.186;17.130;2022-07-23T00:44:28;21.40;;;13.60;;
70532;SDS011;58088;51.186;17.130;2022-07-23T00:46:57;21.90;;;13.10;;
70532;SDS011;58088;51.186;17.130;2022-07-23T00:49:29;19.20;;;12.40;;
70532;SDS011;58088;51.186;17.130;2022-07-23T00:51:57;20.80;;;12.80;;
70532;SDS011;58088;51.186;17.130;2022-07-23T00:54:27;22.90;;;13.50;;
70532;SDS011;58088;51.186;17.130;2022-07-23T00:56:54;23.50;;;12.80;;
70532;SDS011;58088;51.186;17.130;2022-07-23T00:59:20;19.90;;;12.90;;
70532;SDS011;58088;51.186;17.130;2022-07-23T01:01:47;20.50;;;12.50;;
70532;SDS011;58088;51.186;17.130;2022-07-23T01:04:15;23.50;;;12.50;;
70532;SDS011;58088;51.186;17.130;2022-07-23T01:06:43;22.50;;;12.90;;
70532;SDS011;58088;51.186;17.130;2022-07-23T01:09:11;22.40;;;11.90;;
70532;SDS011;58088;51.186;17.130;2022-07-23T01:11:38;21.90;;;13.40;;
70532;SDS011;58088;51.186;17.130;2022-07-23T01:14:14;23.70;;;11.90;;
70532;SDS011;58088;51.186;17.130;2022-07-23T01:16:44;20.50;;;12.30;;
70532;SDS011;58088;51.186;17.130;2022-07-23T01:19:14;19.20;;;12.00;;
70532;SDS011;58088;51.186;17.130;2022-07-23T01:21:44;25.10;;;13.90;;
70532;SDS011;58088;51.186;17.130;2022-07-23T01:24:13;24.60;;;13.90;;
70532;SDS011;58088;51.186;17.130;2022-07-23T01:26:49;18.80;;;12.60;;
70532;SDS011;58088;51.186;17.130;2022-07-23T01:29:18;22.50;;;13.10;;
70532;SDS011;58088;51.186;17.130;2022-07-23T01:31:47;21.40;;;12.20;;
70532;SDS011;58088;51.186;17.130;2022-07-23T01:34:14;22.00;;;13.40;;
70532;SDS011;58088;51.186;17.130;2022-07-23T01:36:40;19.70;;;12.50;;
70532;SDS011;58088;51.186;17.130;2022-07-23T01:39:08;24.90;;;13.00;;
70532;SDS011;58088;51.186;17.130;2022-07-23T01:41:34;23.80;;;13.70;;
70532;SDS011;58088;51.186;17.130;2022-07-23T01:44:02;19.30;;;12.50;;
70532;SDS011;58088;51.186;17.130;2022-07-23T01:46:28;21.40;;;12.40;;
70532;SDS011;58088;51.186;17.130;2022-07-23T01:48:55;22.70;;;12.90;;
70532;SDS011;58088;51.186;17.130;2022-07-23T01:51:40;19.80;;;12.20;;
70532;SDS011;58088;51.186;17.130;2022-07-23T01:54:31;20.30;;;12.10;;
70532;SDS011;58088;51.186;17.130;2022-07-23T01:57:00;22.00;;;13.10;;
70532;SDS011;58088;51.186;17.130;2022-07-23T01:59:27;21.00;;;11.90;;
70532;SDS011;58088;51.186;17.130;2022-07-23T02:01:54;21.90;;;12.10;;
70532;SDS011;58088;51.186;17.130;2022-07-23T02:04:21;23.50;;;11.80;;
70532;SDS011;58088;51.186;17.130;2022-07-23T02:06:48;20.70;;;12.20;;
70532;SDS011;58088;51.186;17.130;2022-07-23T02:09:14;22.50;;;12.60;;
70532;SDS011;58088;51.186;17.130;2022-07-23T02:11:41;24.40;;;12.30;;
70532;SDS011;58088;51.186;17.130;2022-07-23T02:14:07;23.60;;;12.20;;
70532;SDS011;58088;51.186;17.130;2022-07-23T02:16:34;29.60;;;12.40;;
70532;SDS011;58088;51.186;17.130;2022-07-23T02:19:02;24.50;;;13.10;;
70532;SDS011;58088;51.186;17.130;2022-07-23T02:21:29;26.10;;;13.10;;
70532;SDS011;58088;51.186;17.130;2022-07-23T02:23:55;28.50;;;13.20;;
70532;SDS011;58088;51.186;17.130;2022-07-23T02:26:22;24.10;;;12.60;;
70532;SDS011;58088;51.186;17.130;2022-07-23T02:28:50;27.10;;;13.50;;
70532;SDS011;58088;51.186;17.130;2022-07-23T02:31:16;25.80;;;13.10;;
70532;SDS011;58088;51.186;17.130;2022-07-23T02:33:42;27.20;;;13.40;;
70532;SDS011;58088;51.186;17.130;2022-07-23T02:36:08;24.30;;;12.60;;
70532;SDS011;58088;51.186;17.130;2022-07-23T02:38:35;25.90;;;13.00;;
70532;SDS011;58088;51.186;17.130;2022-07-23T02:41:01;26.00;;;12.30;;
70532;SDS011;58088;51.186;17.130;2022-07-23T02:43:28;29.00;;;13.80;;
70532;SDS011;58088;51.186;17.130;2022-07-23T02:45:55;23.10;;;13.70;;
70532;SDS011;58088;51.186;17.130;2022-07-23T02:48:21;21.80;;;11.90;;
70532;SDS011;58088;51.186;17.130;2022-07-23T02:50:47;20.70;;;12.30;;
70532;SDS011;58088;51.186;17.130;2022-07-23T02:53:15;23.80;;;11.70;;
70532;SDS011;58088;51.186;17.130;2022-07-23T02:55:42;24.70;;;12.60;;
70532;SDS011;58088;51.186;17.130;2022-07-23T02:58:08;20.10;;;11.90;;
70532;SDS011;58088;51.186;17.130;2022-07-23T03:00:34;21.00;;;12.30;;
70532;SDS011;58088;51.186;17.130;2022-07-23T03:03:00;28.60;;;13.80;;
70532;SDS011;58088;51.186;17.130;2022-07-23T03:05:27;20.10;;;11.50;;
70532;SDS011;58088;51.186;17.130;2022-07-23T03:07:53;25.00;;;12.10;;
70532;SDS011;58088;51.186;17.130;2022-07-23T03:10:19;22.60;;;11.60;;
70532;SDS011;58088;51.186;17.130;2022-07-23T03:12:45;19.00;;;12.10;;
70532;SDS011;58088;51.186;17.130;2022-07-23T03:15:11;20.60;;;12.00;;
70532;SDS011;58088;51.186;17.130;2022-07-23T03:17:38;20.70;;;12.60;;
70532;SDS011;58088;51.186;17.130;2022-07-23T03:20:04;24.00;;;13.70;;
70532;SDS011;58088;51.186;17.130;2022-07-23T03:22:31;26.80;;;14.20;;
70532;SDS011;58088;51.186;17.130;2022-07-23T03:24:57;21.10;;;12.10;;
70532;SDS011;58088;51.186;17.130;2022-07-23T03:27:28;21.90;;;12.00;;
70532;SDS011;58088;51.186;17.130;2022-07-23T03:29:58;18.80;;;11.00;;
70532;SDS011;58088;51.186;17.130;2022-07-23T03:32:25;20.10;;;11.50;;
70532;SDS011;58088;51.186;17.130;2022-07-23T03:34:53;26.10;;;11.70;;
70532;SDS011;58088;51.186;17.130;2022-07-23T03:37:20;20.30;;;11.70;;
70532;SDS011;58088;51.186;17.130;2022-07-23T03:39:47;20.50;;;11.80;;
70532;SDS011;58088;51.186;17.130;2022-07-23T03:42:13;21.80;;;12.70;;
70532;SDS011;58088;51.186;17.130;2022-07-23T03:44:39;24.60;;;11.90;;
70532;SDS011;58088;51.186;17.130;2022-07-23T03:47:05;19.70;;;10.90;;
70532;SDS011;58088;51.186;17.130;2022-07-23T03:49:32;20.20;;;12.50;;
70532;SDS011;58088;51.186;17.130;2022-07-23T03:51:59;24.10;;;12.20;;
70532;SDS011;58088;51.186;17.130;2022-07-23T03:54:25;19.30;;;11.80;;
70532;SDS011;58088;51.186;17.130;2022-07-23T03:56:51;19.90;;;11.70;;
70532;SDS011;58088;51.186;17.130;2022-07-23T03:59:17;22.00;;;12.30;;
70532;SDS011;58088;51.186;17.130;2022-07-23T04:01:44;25.00;;;13.10;;
70532;SDS011;58088;51.186;17.130;2022-07-23T04:04:10;23.30;;;12.80;;
70532;SDS011;58088;51.186;17.130;2022-07-23T04:06:37;22.40;;;12.90;;
70532;SDS011;58088;51.186;17.130;2022-07-23T04:09:03;19.70;;;12.40;;
70532;SDS011;58088;51.186;17.130;2022-07-23T04:11:30;22.60;;;12.90;;
70532;SDS011;58088;51.186;17.130;2022-07-23T04:13:56;25.50;;;12.90;;
70532;SDS011;58088;51.186;17.130;2022-07-23T04:16:23;21.80;;;12.50;;
70532;SDS011;58088;51.186;17.130;2022-07-23T04:18:49;22.60;;;13.30;;
70532;SDS011;58088;51.186;17.130;2022-07-23T04:21:18;20.90;;;13.10;;
70532;SDS011;58088;51.186;17.130;2022-07-23T04:23:44;21.90;;;13.70;;
70532;SDS011;58088;51.186;17.130;2022-07-23T04:26:11;25.80;;;13.80;;
70532;SDS011;58088;51.186;17.130;2022-07-23T04:28:37;22.60;;;14.40;;
70532;SDS011;58088;51.186;17.130;2022-07-23T04:31:03;21.80;;;12.70;;
70532;SDS011;58088;51.186;17.130;2022-07-23T04:33:31;20.90;;;12.00;;
70532;SDS011;58088;51.186;17.130;2022-07-23T04:35:58;20.00;;;12.40;;
70532;SDS011;58088;51.186;17.130;2022-07-23T04:38:25;20.50;;;13.50;;
70532;SDS011;58088;51.186;17.130;2022-07-23T04:40:54;21.00;;;13.60;;
70532;SDS011;58088;51.186;17.130;2022-07-23T04:43:20;23.60;;;13.30;;
70532;SDS011;58088;51.186;17.130;2022-07-23T04:45:48;20.80;;;14.80;;
70532;SDS011;58088;51.186;17.130;2022-07-23T04:48:15;22.30;;;15.10;;
70532;SDS011;58088;51.186;17.130;2022-07-23T04:50:41;20.20;;;14.20;;
70532;SDS011;58088;51.186;17.130;2022-07-23T04:53:14;20.10;;;13.60;;
70532;SDS011;58088;51.186;17.130;2022-07-23T04:55:41;21.10;;;14.00;;
70532;SDS011;58088;51.186;17.130;2022-07-23T04:58:07;20.20;;;13.50;;
70532;SDS011;58088;51.186;17.130;2022-07-23T05:00:33;17.60;;;12.30;;
70532;SDS011;58088;51.186;17.130;2022-07-23T05:02:59;18.90;;;12.60;;
70532;SDS011;58088;51.186;17.130;2022-07-23T05:05:25;18.60;;;12.30;;
70532;SDS011;58088;51.186;17.130;2022-07-23T05:07:53;17.20;;;12.00;;
70532;SDS011;58088;51.186;17.130;2022-07-23T05:10:19;17.20;;;11.70;;
70532;SDS011;58088;51.186;17.130;2022-07-23T05:12:46;16.70;;;11.50;;
70532;SDS011;58088;51.186;17.130;2022-07-23T05:15:12;20.00;;;11.90;;
70532;SDS011;58088;51.186;17.130;2022-07-23T05:17:38;20.30;;;11.80;;
70532;SDS011;58088;51.186;17.130;2022-07-23T05:20:10;17.70;;;11.40;;
70532;SDS011;58088;51.186;17.130;2022-07-23T05:22:36;17.30;;;11.40;;
70532;SDS011;58088;51.186;17.130;2022-07-23T05:25:03;16.70;;;11.00;;
70532;SDS011;58088;51.186;17.130;2022-07-23T05:27:30;16.70;;;11.30;;
70532;SDS011;58088;51.186;17.130;2022-07-23T05:29:56;16.20;;;11.70;;
70532;SDS011;58088;51.186;17.130;2022-07-23T05:32:23;20.10;;;10.60;;
70532;SDS011;58088;51.186;17.130;2022-07-23T05:34:56;15.00;;;10.90;;
70532;SDS011;58088;51.186;17.130;2022-07-23T05:37:22;22.00;;;11.80;;
70532;SDS011;58088;51.186;17.130;2022-07-23T05:39:49;17.90;;;11.80;;
70532;SDS011;58088;51.186;17.130;2022-07-23T05:42:15;19.00;;;11.40;;
70532;SDS011;58088;51.186;17.130;2022-07-23T05:44:41;16.80;;;10.80;;
70532;SDS011;58088;51.186;17.130;2022-07-23T05:47:08;16.70;;;10.80;;
70532;SDS011;58088;51.186;17.130;2022-07-23T05:49:36;17.00;;;11.30;;
70532;SDS011;58088;51.186;17.130;2022-07-23T05:52:18;16.60;;;11.20;;
70532;SDS011;58088;51.186;17.130;2022-07-23T05:55:11;15.30;;;11.10;;
70532;SDS011;58088;51.186;17.130;2022-07-23T05:57:41;15.10;;;10.90;;
70532;SDS011;58088;51.186;17.130;2022-07-23T06:00:09;19.00;;;11.30;;
70532;SDS011;58088;51.186;17.130;2022-07-23T06:02:43;20.30;;;11.90;;
70532;SDS011;58088;51.186;17.130;2022-07-23T06:05:10;16.40;;;11.00;;
70532;SDS011;58088;51.186;17.130;2022-07-23T06:07:37;19.10;;;10.70;;
70532;SDS011;58088;51.186;17.130;2022-07-23T06:10:04;15.20;;;10.80;;
70532;SDS011;58088;51.186;17.130;2022-07-23T06:12:31;18.70;;;11.20;;
70532;SDS011;58088;51.186;17.130;2022-07-23T06:14:57;16.50;;;11.20;;
70532;SDS011;58088;51.186;17.130;2022-07-23T06:17:24;16.20;;;10.90;;
70532;SDS011;58088;51.186;17.130;2022-07-23T06:19:51;20.40;;;11.80;;
70532;SDS011;58088;51.186;17.130;2022-07-23T06:22:18;16.50;;;11.00;;
70532;SDS011;58088;51.186;17.130;2022-07-23T06:24:45;16.60;;;10.70;;
70532;SDS011;58088;51.186;17.130;2022-07-23T06:27:13;17.10;;;10.80;;
70532;SDS011;58088;51.186;17.130;2022-07-23T06:29:39;16.10;;;11.30;;
70532;SDS011;58088;51.186;17.130;2022-07-23T06:32:08;16.90;;;10.90;;
70532;SDS011;58088;51.186;17.130;2022-07-23T06:34:35;18.90;;;11.10;;
70532;SDS011;58088;51.186;17.130;2022-07-23T06:37:02;19.10;;;11.90;;
70532;SDS011;58088;51.186;17.130;2022-07-23T06:39:28;16.80;;;10.60;;
70532;SDS011;58088;51.186;17.130;2022-07-23T06:41:57;18.00;;;11.20;;
70532;SDS011;58088;51.186;17.130;2022-07-23T06:44:35;20.30;;;11.00;;
70532;SDS011;58088;51.186;17.130;2022-07-23T06:47:01;18.50;;;10.00;;
70532;SDS011;58088;51.186;17.130;2022-07-23T06:49:27;19.50;;;10.40;;
70532;SDS011;58088;51.186;17.130;2022-07-23T06:51:57;15.50;;;11.30;;
70532;SDS011;58088;51.186;17.130;2022-07-23T06:54:23;15.60;;;11.00;;
70532;SDS011;58088;51.186;17.130;2022-07-23T06:56:50;21.70;;;11.10;;
70532;SDS011;58088;51.186;17.130;2022-07-23T06:59:16;17.40;;;10.60;;
70532;SDS011;58088;51.186;17.130;2022-07-23T07:01:42;14.80;;;10.80;;
70532;SDS011;58088;51.186;17.130;2022-07-23T07:04:08;17.10;;;11.30;;
70532;SDS011;58088;51.186;17.130;2022-07-23T07:06:35;16.20;;;10.90;;
70532;SDS011;58088;51.186;17.130;2022-07-23T07:09:01;15.10;;;11.00;;
70532;SDS011;58088;51.186;17.130;2022-07-23T07:11:28;16.60;;;10.50;;
70532;SDS011;58088;51.186;17.130;2022-07-23T07:13:54;16.50;;;10.70;;
70532;SDS011;58088;51.186;17.130;2022-07-23T07:16:20;16.70;;;10.80;;
70532;SDS011;58088;51.186;17.130;2022-07-23T07:18:46;15.80;;;10.70;;
70532;SDS011;58088;51.186;17.130;2022-07-23T07:21:12;15.30;;;11.20;;
70532;SDS011;58088;51.186;17.130;2022-07-23T07:23:39;16.30;;;11.10;;
70532;SDS011;58088;51.186;17.130;2022-07-23T07:26:05;16.90;;;10.40;;
70532;SDS011;58088;51.186;17.130;2022-07-23T07:28:31;14.60;;;9.40;;
70532;SDS011;58088;51.186;17.130;2022-07-23T07:30:58;17.00;;;11.40;;
70532;SDS011;58088;51.186;17.130;2022-07-23T07:33:24;16.50;;;11.40;;
70532;SDS011;58088;51.186;17.130;2022-07-23T07:35:50;16.00;;;11.70;;
70532;SDS011;58088;51.186;17.130;2022-07-23T07:38:16;18.50;;;11.60;;
70532;SDS011;58088;51.186;17.130;2022-07-23T07:40:43;18.80;;;11.80;;
70532;SDS011;58088;51.186;17.130;2022-07-23T07:43:10;17.10;;;11.40;;
70532;SDS011;58088;51.186;17.130;2022-07-23T07:45:36;18.10;;;12.30;;
70532;SDS011;58088;51.186;17.130;2022-07-23T07:48:03;17.00;;;11.90;;
70532;SDS011;58088;51.186;17.130;2022-07-23T07:50:30;14.70;;;11.80;;
70532;SDS011;58088;51.186;17.130;2022-07-23T07:52:57;19.50;;;12.50;;
70532;SDS011;58088;51.186;17.130;2022-07-23T07:55:23;20.50;;;12.20;;
70532;SDS011;58088;51.186;17.130;2022-07-23T07:57:49;18.70;;;12.40;;
70532;SDS011;58088;51.186;17.130;2022-07-23T08:00:16;14.70;;;11.40;;
70532;SDS011;58088;51.186;17.130;2022-07-23T08:02:51;17.10;;;12.20;;
70532;SDS011;58088;51.186;17.130;2022-07-23T08:05:23;18.50;;;12.10;;
70532;SDS011;58088;51.186;17.130;2022-07-23T08:07:50;15.90;;;10.80;;
70532;SDS011;58088;51.186;17.130;2022-07-23T08:10:17;18.20;;;11.80;;
70532;SDS011;58088;51.186;17.130;2022-07-23T08:12:46;15.70;;;11.80;;
70532;SDS011;58088;51.186;17.130;2022-07-23T08:15:16;19.60;;;12.00;;
70532;SDS011;58088;51.186;17.130;2022-07-23T08:17:45;20.70;;;12.10;;
70532;SDS011;58088;51.186;17.130;2022-07-23T08:20:13;17.60;;;11.50;;
70532;SDS011;58088;51.186;17.130;2022-07-23T08:22:45;18.20;;;11.80;;
70532;SDS011;58088;51.186;17.130;2022-07-23T08:25:31;15.80;;;12.00;;
70532;SDS011;58088;51.186;17.130;2022-07-23T08:28:00;17.00;;;11.80;;
70532;SDS011;58088;51.186;17.130;2022-07-23T08:30:28;19.90;;;13.10;;
70532;SDS011;58088;51.186;17.130;2022-07-23T08:32:58;19.30;;;12.30;;
70532;SDS011;58088;51.186;17.130;2022-07-23T08:35:31;23.60;;;12.00;;
70532;SDS011;58088;51.186;17.130;2022-07-23T08:38:05;17.10;;;12.80;;
70532;SDS011;58088;51.186;17.130;2022-07-23T08:40:34;18.90;;;11.50;;
70532;SDS011;58088;51.186;17.130;2022-07-23T08:43:09;16.20;;;12.00;;
70532;SDS011;58088;51.186;17.130;2022-07-23T08:45:42;16.90;;;11.70;;
70532;SDS011;58088;51.186;17.130;2022-07-23T08:48:17;17.40;;;12.70;;
70532;SDS011;58088;51.186;17.130;2022-07-23T08:50:56;16.20;;;11.40;;
70532;SDS011;58088;51.186;17.130;2022-07-23T08:53:25;17.70;;;12.10;;
70532;SDS011;58088;51.186;17.130;2022-07-23T08:55:55;15.20;;;11.40;;
70532;SDS011;58088;51.186;17.130;2022-07-23T08:58:23;22.00;;;12.80;;
70532;SDS011;58088;51.186;17.130;2022-07-23T09:00:50;16.70;;;12.60;;
70532;SDS011;58088;51.186;17.130;2022-07-23T09:03:24;22.40;;;13.20;;
70532;SDS011;58088;51.186;17.130;2022-07-23T09:05:56;21.10;;;12.30;;
70532;SDS011;58088;51.186;17.130;2022-07-23T09:11:04;17.80;;;12.20;;
70532;SDS011;58088;51.186;17.130;2022-07-23T09:13:48;19.60;;;12.80;;
70532;SDS011;58088;51.186;17.130;2022-07-23T09:16:26;17.20;;;12.40;;
70532;SDS011;58088;51.186;17.130;2022-07-23T09:19:00;22.00;;;12.60;;
70532;SDS011;58088;51.186;17.130;2022-07-23T09:21:33;16.90;;;12.70;;
70532;SDS011;58088;51.186;17.130;2022-07-23T09:24:13;25.20;;;13.70;;
70532;SDS011;58088;51.186;17.130;2022-07-23T09:26:46;17.80;;;12.60;;
70532;SDS011;58088;51.186;17.130;2022-07-23T09:29:25;17.00;;;12.60;;
70532;SDS011;58088;51.186;17.130;2022-07-23T09:31:59;16.50;;;12.90;;
70532;SDS011;58088;51.186;17.130;2022-07-23T09:34:35;16.90;;;12.80;;
70532;SDS011;58088;51.186;17.130;2022-07-23T09:37:23;19.40;;;12.70;;
70532;SDS011;58088;51.186;17.130;2022-07-23T09:39:49;19.40;;;13.90;;
70532;SDS011;58088;51.186;17.130;2022-07-23T09:44:49;17.10;;;12.60;;
70532;SDS011;58088;51.186;17.130;2022-07-23T09:47:17;15.70;;;12.50;;
70532;SDS011;58088;51.186;17.130;2022-07-23T09:50:09;16.20;;;11.80;;
70532;SDS011;58088;51.186;17.130;2022-07-23T09:52:45;18.70;;;12.70;;
70532;SDS011;58088;51.186;17.130;2022-07-23T09:55:17;15.20;;;11.80;;
70532;SDS011;58088;51.186;17.130;2022-07-23T09:57:45;17.20;;;12.70;;
70532;SDS011;58088;51.186;17.130;2022-07-23T10:00:22;17.80;;;12.90;;
70532;SDS011;58088;51.186;17.130;2022-07-23T10:02:50;17.70;;;12.60;;
70532;SDS011;58088;51.186;17.130;2022-07-23T10:05:29;20.40;;;12.70;;
70532;SDS011;58088;51.186;17.130;2022-07-23T10:08:25;16.00;;;11.70;;
70532;SDS011;58088;51.186;17.130;2022-07-23T10:11:31;20.20;;;12.00;;
70532;SDS011;58088;51.186;17.130;2022-07-23T10:14:05;18.80;;;11.70;;
70532;SDS011;58088;51.186;17.130;2022-07-23T10:16:51;18.90;;;12.30;;
70532;SDS011;58088;51.186;17.130;2022-07-23T10:19:18;19.60;;;12.30;;
70532;SDS011;58088;51.186;17.130;2022-07-23T10:21:48;18.30;;;12.70;;
70532;SDS011;58088;51.186;17.130;2022-07-23T10:24:36;18.30;;;11.90;;
70532;SDS011;58088;51.186;17.130;2022-07-23T10:30:41;17.60;;;10.60;;
70532;SDS011;58088;51.186;17.130;2022-07-23T10:33:17;18.20;;;10.50;;
70532;SDS011;58088;51.186;17.130;2022-07-23T10:36:09;16.60;;;10.60;;
70532;SDS011;58088;51.186;17.130;2022-07-23T10:41:39;17.30;;;10.70;;
70532;SDS011;58088;51.186;17.130;2022-07-23T10:44:17;15.80;;;10.40;;
70532;SDS011;58088;51.186;17.130;2022-07-23T10:47:00;16.80;;;11.30;;
70532;SDS011;58088;51.186;17.130;2022-07-23T10:49:30;19.70;;;12.00;;
70532;SDS011;58088;51.186;17.130;2022-07-23T10:52:20;16.80;;;11.30;;
70532;SDS011;58088;51.186;17.130;2022-07-23T10:57:30;20.50;;;11.30;;
70532;SDS011;58088;51.186;17.130;2022-07-23T11:02:42;23.50;;;10.50;;
70532;SDS011;58088;51.186;17.130;2022-07-23T11:05:16;17.10;;;10.50;;
70532;SDS011;58088;51.186;17.130;2022-07-23T11:16:15;23.40;;;12.60;;
70532;SDS011;58088;51.186;17.130;2022-07-23T11:18:55;22.70;;;11.90;;
70532;SDS011;58088;51.186;17.130;2022-07-23T11:24:17;22.40;;;12.70;;
70532;SDS011;58088;51.186;17.130;2022-07-23T11:32:05;15.50;;;9.50;;
70532;SDS011;58088;51.186;17.130;2022-07-23T11:34:34;19.40;;;11.90;;
70532;SDS011;58088;51.186;17.130;2022-07-23T11:37:06;17.20;;;11.40;;
70532;SDS011;58088;51.186;17.130;2022-07-23T11:39:38;18.10;;;11.70;;
70532;SDS011;58088;51.186;17.130;2022-07-23T11:42:18;19.40;;;10.50;;
70532;SDS011;58088;51.186;17.130;2022-07-23T11:44:46;20.10;;;11.90;;
70532;SDS011;58088;51.186;17.130;2022-07-23T11:47:13;19.00;;;12.60;;
70532;SDS011;58088;51.186;17.130;2022-07-23T11:49:59;18.40;;;12.10;;
70532;SDS011;58088;51.186;17.130;2022-07-23T11:52:30;19.70;;;12.30;;
70532;SDS011;58088;51.186;17.130;2022-07-23T11:55:04;20.30;;;13.00;;
70532;SDS011;58088;51.186;17.130;2022-07-23T11:57:36;20.80;;;13.10;;
70532;SDS011;58088;51.186;17.130;2022-07-23T12:00:13;20.70;;;13.50;;
70532;SDS011;58088;51.186;17.130;2022-07-23T12:02:47;21.10;;;13.10;;
70532;SDS011;58088;51.186;17.130;2022-07-23T12:05:33;19.80;;;13.50;;
70532;SDS011;58088;51.186;17.130;2022-07-23T12:08:12;19.90;;;12.80;;
70532;SDS011;58088;51.186;17.130;2022-07-23T12:10:43;22.50;;;13.70;;
70532;SDS011;58088;51.186;17.130;2022-07-23T12:13:20;21.90;;;13.90;;
70532;SDS011;58088;51.186;17.130;2022-07-23T12:15:58;19.80;;;12.60;;
70532;SDS011;58088;51.186;17.130;2022-07-23T12:18:28;21.00;;;13.80;;
70532;SDS011;58088;51.186;17.130;2022-07-23T12:20:57;22.80;;;12.50;;
70532;SDS011;58088;51.186;17.130;2022-07-23T12:23:30;20.50;;;14.20;;
70532;SDS011;58088;51.186;17.130;2022-07-23T12:26:01;18.70;;;12.80;;
70532;SDS011;58088;51.186;17.130;2022-07-23T12:28:31;20.80;;;14.50;;
70532;SDS011;58088;51.186;17.130;2022-07-23T12:30:59;20.70;;;14.10;;
70532;SDS011;58088;51.186;17.130;2022-07-23T12:33:36;22.50;;;13.80;;
70532;SDS011;58088;51.186;17.130;2022-07-23T12:36:06;23.30;;;13.20;;
70532;SDS011;58088;51.186;17.130;2022-07-23T12:38:42;21.80;;;13.90;;
70532;SDS011;58088;51.186;17.130;2022-07-23T12:41:13;18.00;;;11.30;;
70532;SDS011;58088;51.186;17.130;2022-07-23T12:43:41;19.60;;;12.40;;
70532;SDS011;58088;51.186;17.130;2022-07-23T12:46:10;19.50;;;13.00;;
70532;SDS011;58088;51.186;17.130;2022-07-23T12:48:50;19.10;;;12.30;;
70532;SDS011;58088;51.186;17.130;2022-07-23T12:51:23;22.10;;;15.30;;
70532;SDS011;58088;51.186;17.130;2022-07-23T12:54:05;22.00;;;14.10;;
70532;SDS011;58088;51.186;17.130;2022-07-23T12:56:39;20.70;;;13.60;;
70532;SDS011;58088;51.186;17.130;2022-07-23T12:59:11;19.20;;;12.80;;
70532;SDS011;58088;51.186;17.130;2022-07-23T13:01:43;19.20;;;12.70;;
70532;SDS011;58088;51.186;17.130;2022-07-23T13:04:22;17.40;;;12.30;;
70532;SDS011;58088;51.186;17.130;2022-07-23T13:06:52;19.10;;;13.00;;
70532;SDS011;58088;51.186;17.130;2022-07-23T13:09:27;20.00;;;14.10;;
70532;SDS011;58088;51.186;17.130;2022-07-23T13:11:56;22.70;;;15.20;;
70532;SDS011;58088;51.186;17.130;2022-07-23T13:14:24;18.80;;;13.70;;
70532;SDS011;58088;51.186;17.130;2022-07-23T13:16:52;19.10;;;14.30;;
70532;SDS011;58088;51.186;17.130;2022-07-23T13:19:20;20.60;;;14.00;;
70532;SDS011;58088;51.186;17.130;2022-07-23T13:21:48;20.40;;;14.20;;
70532;SDS011;58088;51.186;17.130;2022-07-23T13:24:15;16.80;;;13.60;;
70532;SDS011;58088;51.186;17.130;2022-07-23T13:26:41;16.30;;;12.40;;
70532;SDS011;58088;51.186;17.130;2022-07-23T13:29:08;16.60;;;11.70;;
70532;SDS011;58088;51.186;17.130;2022-07-23T13:31:38;15.40;;;11.50;;
70532;SDS011;58088;51.186;17.130;2022-07-23T13:34:05;19.60;;;13.80;;
70532;SDS011;58088;51.186;17.130;2022-07-23T13:36:32;20.10;;;13.90;;
70532;SDS011;58088;51.186;17.130;2022-07-23T13:38:58;18.80;;;13.20;;
70532;SDS011;58088;51.186;17.130;2022-07-23T13:41:24;17.80;;;13.20;;
70532;SDS011;58088;51.186;17.130;2022-07-23T13:43:51;21.80;;;12.40;;
70532;SDS011;58088;51.186;17.130;2022-07-23T13:46:17;18.80;;;13.10;;
70532;SDS011;58088;51.186;17.130;2022-07-23T13:48:43;21.10;;;13.50;;
70532;SDS011;58088;51.186;17.130;2022-07-23T13:51:09;19.60;;;13.60;;
70532;SDS011;58088;51.186;17.130;2022-07-23T13:53:35;18.90;;;12.30;;
70532;SDS011;58088;51.186;17.130;2022-07-23T13:56:01;21.10;;;14.10;;
70532;SDS011;58088;51.186;17.130;2022-07-23T13:58:27;18.40;;;12.70;;
70532;SDS011;58088;51.186;17.130;2022-07-23T14:00:54;19.10;;;12.80;;
70532;SDS011;58088;51.186;17.130;2022-07-23T14:03:21;18.20;;;13.50;;
70532;SDS011;58088;51.186;17.130;2022-07-23T14:05:52;21.60;;;14.70;;
70532;SDS011;58088;51.186;17.130;2022-07-23T14:08:19;22.40;;;15.80;;
70532;SDS011;58088;51.186;17.130;2022-07-23T14:10:45;20.00;;;14.20;;
70532;SDS011;58088;51.186;17.130;2022-07-23T14:13:12;19.80;;;12.60;;
70532;SDS011;58088;51.186;17.130;2022-07-23T14:15:38;18.00;;;12.50;;
70532;SDS011;58088;51.186;17.130;2022-07-23T14:18:06;21.30;;;14.10;;
70532;SDS011;58088;51.186;17.130;2022-07-23T14:20:33;20.60;;;14.10;;
70532;SDS011;58088;51.186;17.130;2022-07-23T14:23:00;21.00;;;14.10;;
70532;SDS011;58088;51.186;17.130;2022-07-23T14:25:27;21.50;;;14.20;;
70532;SDS011;58088;51.186;17.130;2022-07-23T14:27:53;17.60;;;13.60;;
70532;SDS011;58088;51.186;17.130;2022-07-23T14:30:19;24.50;;;15.40;;
70532;SDS011;58088;51.186;17.130;2022-07-23T14:32:46;19.50;;;13.80;;
70532;SDS011;58088;51.186;17.130;2022-07-23T14:35:12;18.60;;;14.10;;
70532;SDS011;58088;51.186;17.130;2022-07-23T14:37:39;19.30;;;14.50;;
70532;SDS011;58088;51.186;17.130;2022-07-23T14:40:06;21.60;;;14.50;;
70532;SDS011;58088;51.186;17.130;2022-07-23T14:42:32;21.60;;;14.70;;
70532;SDS011;58088;51.186;17.130;2022-07-23T14:44:58;19.60;;;14.10;;
70532;SDS011;58088;51.186;17.130;2022-07-23T14:47:24;20.30;;;14.80;;
70532;SDS011;58088;51.186;17.130;2022-07-23T14:49:51;17.80;;;14.60;;
70532;SDS011;58088;51.186;17.130;2022-07-23T14:52:17;18.70;;;14.00;;
70532;SDS011;58088;51.186;17.130;2022-07-23T14:54:43;20.80;;;14.90;;